sensor_id;sensor_type;location;lat;lon;timestamp;temperature;humidity
23671;DHT22;12012;51.998;7.614;2023-03-14T00:01:17;12.20;99.90
23671;DHT22;12012;51.998;7.614;2023-03-14T00:03:43;12.10;1.00
23671;DHT22;12012;51.998;7.614;2023-03-14T00:06:09;12.10;1.00
23671;DHT22;12012;51.998;7.614;2023-03-14T00:08:36;12.10;1.00
23671;DHT22;12012;51.998;7.614;2023-03-14T00:11:10;12.00;1.00
23671;DHT22;12012;51.998;7.614;2023-03-14T00:13:36;12.00;1.00
23671;DHT22;12012;51.998;7.614;2023-03-14T00:16:10;12.00;1.00
23671;DHT22;12012;51.998;7.614;2023-03-14T00:18:36;11.90;1.00
23671;DHT22;12012;51.998;7.614;2023-03-14T00:21:03;11.90;1.00
23671;DHT22;12012;51.998;7.614;2023-03-14T00:23:30;11.90;1.00
23671;DHT22;12012;51.998;7.614;2023-03-14T00:26:08;11.90;99.90
23671;DHT22;12012;51.998;7.614;2023-03-14T00:28:34;11.80;99.90
23671;DHT22;12012;51.998;7.614;2023-03-14T00:31:03;11.80;99.90
23671;DHT22;12012;51.998;7.614;2023-03-14T00:33:29;11.80;99.90
23671;DHT22;12012;51.998;7.614;2023-03-14T00:35:57;11.70;99.90
23671;DHT22;12012;51.998;7.614;2023-03-14T00:38:24;11.70;99.90
23671;DHT22;12012;51.998;7.614;2023-03-14T00:40:51;11.60;99.90
23671;DHT22;12012;51.998;7.614;2023-03-14T00:43:18;11.60;99.90
23671;DHT22;12012;51.998;7.614;2023-03-14T00:45:44;11.60;99.90
23671;DHT22;12012;51.998;7.614;2023-03-14T00:48:10;11.50;99.90
23671;DHT22;12012;51.998;7.614;2023-03-14T00:50:35;11.40;1.00
23671;DHT22;12012;51.998;7.614;2023-03-14T00:53:01;11.40;1.00
23671;DHT22;12012;51.998;7.614;2023-03-14T00:55:26;11.40;34.00
23671;DHT22;12012;51.998;7.614;2023-03-14T00:57:52;11.40;99.90
23671;DHT22;12012;51.998;7.614;2023-03-14T01:00:18;11.40;99.90
23671;DHT22;12012;51.998;7.614;2023-03-14T01:02:43;11.40;92.20
23671;DHT22;12012;51.998;7.614;2023-03-14T01:05:09;11.30;99.90
23671;DHT22;12012;51.998;7.614;2023-03-14T01:07:38;11.30;99.90
23671;DHT22;12012;51.998;7.614;2023-03-14T01:10:05;11.30;99.90
23671;DHT22;12012;51.998;7.614;2023-03-14T01:12:31;11.30;99.90
23671;DHT22;12012;51.998;7.614;2023-03-14T01:14:57;11.30;99.90
23671;DHT22;12012;51.998;7.614;2023-03-14T01:17:22;11.30;99.90
23671;DHT22;12012;51.998;7.614;2023-03-14T01:19:48;11.30;99.90
23671;DHT22;12012;51.998;7.614;2023-03-14T01:22:14;11.30;99.90
23671;DHT22;12012;51.998;7.614;2023-03-14T01:24:39;11.30;99.90
23671;DHT22;12012;51.998;7.614;2023-03-14T01:27:05;11.30;99.90
23671;DHT22;12012;51.998;7.614;2023-03-14T01:29:31;11.40;99.90
23671;DHT22;12012;51.998;7.614;2023-03-14T01:31:57;11.40;61.80
23671;DHT22;12012;51.998;7.614;2023-03-14T01:34:22;11.50;1.00
23671;DHT22;12012;51.998;7.614;2023-03-14T01:36:48;11.50;1.00
23671;DHT22;12012;51.998;7.614;2023-03-14T01:39:14;11.50;99.90
23671;DHT22;12012;51.998;7.614;2023-03-14T01:41:40;11.60;99.90
23671;DHT22;12012;51.998;7.614;2023-03-14T01:44:12;11.60;99.90
23671;DHT22;12012;51.998;7.614;2023-03-14T01:46:42;11.60;1.00
23671;DHT22;12012;51.998;7.614;2023-03-14T01:49:27;11.70;1.00
23671;DHT22;12012;51.998;7.614;2023-03-14T01:52:13;11.70;1.00
23671;DHT22;12012;51.998;7.614;2023-03-14T01:54:46;11.70;1.00
23671;DHT22;12012;51.998;7.614;2023-03-14T01:57:27;11.60;99.90
23671;DHT22;12012;51.998;7.614;2023-03-14T01:59:58;11.50;99.90
23671;DHT22;12012;51.998;7.614;2023-03-14T02:02:26;11.40;99.90
23671;DHT22;12012;51.998;7.614;2023-03-14T02:04:54;11.20;48.90
23671;DHT22;12012;51.998;7.614;2023-03-14T02:09:56;11.00;90.30
23671;DHT22;12012;51.998;7.614;2023-03-14T02:12:24;10.80;1.00
23671;DHT22;12012;51.998;7.614;2023-03-14T02:14:50;10.70;99.90
23671;DHT22;12012;51.998;7.614;2023-03-14T02:17:17;10.60;99.90
23671;DHT22;12012;51.998;7.614;2023-03-14T02:22:33;10.50;1.00
23671;DHT22;12012;51.998;7.614;2023-03-14T02:27:44;10.40;1.00
23671;DHT22;12012;51.998;7.614;2023-03-14T02:30:22;10.30;1.00
23671;DHT22;12012;51.998;7.614;2023-03-14T02:32:51;10.30;1.00
23671;DHT22;12012;51.998;7.614;2023-03-14T02:35:22;10.20;1.00
23671;DHT22;12012;51.998;7.614;2023-03-14T02:37:52;10.20;1.00
23671;DHT22;12012;51.998;7.614;2023-03-14T02:40:19;10.20;1.00
23671;DHT22;12012;51.998;7.614;2023-03-14T02:42:44;10.20;1.00
23671;DHT22;12012;51.998;7.614;2023-03-14T02:47:39;10.10;1.00
23671;DHT22;12012;51.998;7.614;2023-03-14T02:50:16;10.10;1.00
23671;DHT22;12012;51.998;7.614;2023-03-14T02:52:42;10.00;1.00
23671;DHT22;12012;51.998;7.614;2023-03-14T02:55:09;10.00;1.00
23671;DHT22;12012;51.998;7.614;2023-03-14T02:57:34;9.90;1.00
23671;DHT22;12012;51.998;7.614;2023-03-14T03:00:01;9.90;1.00
23671;DHT22;12012;51.998;7.614;2023-03-14T03:02:27;9.80;1.00
23671;DHT22;12012;51.998;7.614;2023-03-14T03:04:53;9.80;1.00
23671;DHT22;12012;51.998;7.614;2023-03-14T03:07:19;9.80;1.00
23671;DHT22;12012;51.998;7.614;2023-03-14T03:09:45;9.70;1.00
23671;DHT22;12012;51.998;7.614;2023-03-14T03:12:11;9.70;1.00
23671;DHT22;12012;51.998;7.614;2023-03-14T03:14:36;9.70;1.00
23671;DHT22;12012;51.998;7.614;2023-03-14T03:17:04;9.70;1.00
23671;DHT22;12012;51.998;7.614;2023-03-14T03:19:31;9.60;1.00
23671;DHT22;12012;51.998;7.614;2023-03-14T03:21:56;9.60;1.00
23671;DHT22;12012;51.998;7.614;2023-03-14T03:24:23;9.60;1.00
23671;DHT22;12012;51.998;7.614;2023-03-14T03:26:49;9.60;1.00
23671;DHT22;12012;51.998;7.614;2023-03-14T03:29:15;9.60;1.00
23671;DHT22;12012;51.998;7.614;2023-03-14T03:31:41;9.50;1.00
23671;DHT22;12012;51.998;7.614;2023-03-14T03:34:06;9.50;1.00
23671;DHT22;12012;51.998;7.614;2023-03-14T03:36:32;9.50;1.00
23671;DHT22;12012;51.998;7.614;2023-03-14T03:38:58;9.50;1.00
23671;DHT22;12012;51.998;7.614;2023-03-14T03:41:24;9.50;1.00
23671;DHT22;12012;51.998;7.614;2023-03-14T03:43:50;9.50;1.00
23671;DHT22;12012;51.998;7.614;2023-03-14T03:46:15;9.50;1.00
23671;DHT22;12012;51.998;7.614;2023-03-14T03:48:41;9.40;1.00
23671;DHT22;12012;51.998;7.614;2023-03-14T03:51:06;9.50;1.00
23671;DHT22;12012;51.998;7.614;2023-03-14T03:53:32;9.50;1.00
23671;DHT22;12012;51.998;7.614;2023-03-14T03:55:57;9.50;1.00
23671;DHT22;12012;51.998;7.614;2023-03-14T03:58:23;9.50;1.00
23671;DHT22;12012;51.998;7.614;2023-03-14T04:00:49;9.60;1.00
23671;DHT22;12012;51.998;7.614;2023-03-14T04:03:14;9.60;1.00
23671;DHT22;12012;51.998;7.614;2023-03-14T04:05:40;9.60;1.00
23671;DHT22;12012;51.998;7.614;2023-03-14T04:08:05;9.60;1.00
23671;DHT22;12012;51.998;7.614;2023-03-14T04:10:34;9.60;1.00
23671;DHT22;12012;51.998;7.614;2023-03-14T04:13:00;9.60;1.00
23671;DHT22;12012;51.998;7.614;2023-03-14T04:15:25;9.60;1.00
23671;DHT22;12012;51.998;7.614;2023-03-14T04:17:51;9.60;1.00
23671;DHT22;12012;51.998;7.614;2023-03-14T04:20:21;9.70;1.00
23671;DHT22;12012;51.998;7.614;2023-03-14T04:22:46;9.70;1.00
23671;DHT22;12012;51.998;7.614;2023-03-14T04:25:12;9.70;1.00
23671;DHT22;12012;51.998;7.614;2023-03-14T04:27:38;9.80;1.00
23671;DHT22;12012;51.998;7.614;2023-03-14T04:30:03;9.80;1.00
23671;DHT22;12012;51.998;7.614;2023-03-14T04:32:29;9.80;1.00
23671;DHT22;12012;51.998;7.614;2023-03-14T04:34:55;9.90;1.00
23671;DHT22;12012;51.998;7.614;2023-03-14T04:37:20;9.90;1.00
23671;DHT22;12012;51.998;7.614;2023-03-14T04:39:46;10.00;1.00
23671;DHT22;12012;51.998;7.614;2023-03-14T04:42:11;10.00;1.00
23671;DHT22;12012;51.998;7.614;2023-03-14T04:44:37;10.00;1.00
23671;DHT22;12012;51.998;7.614;2023-03-14T04:47:02;10.10;99.90
23671;DHT22;12012;51.998;7.614;2023-03-14T04:49:28;10.10;99.90
23671;DHT22;12012;51.998;7.614;2023-03-14T04:51:54;10.10;99.90
23671;DHT22;12012;51.998;7.614;2023-03-14T04:54:19;10.10;99.90
23671;DHT22;12012;51.998;7.614;2023-03-14T04:56:45;10.10;99.90
23671;DHT22;12012;51.998;7.614;2023-03-14T04:59:10;10.10;99.90
23671;DHT22;12012;51.998;7.614;2023-03-14T05:01:36;10.20;99.90
23671;DHT22;12012;51.998;7.614;2023-03-14T05:04:01;10.20;99.90
23671;DHT22;12012;51.998;7.614;2023-03-14T05:06:27;10.20;99.90
23671;DHT22;12012;51.998;7.614;2023-03-14T05:08:53;10.20;99.90
23671;DHT22;12012;51.998;7.614;2023-03-14T05:11:18;10.20;99.90
23671;DHT22;12012;51.998;7.614;2023-03-14T05:13:44;10.20;99.90
23671;DHT22;12012;51.998;7.614;2023-03-14T05:16:10;10.20;99.90
23671;DHT22;12012;51.998;7.614;2023-03-14T05:18:37;10.30;99.90
23671;DHT22;12012;51.998;7.614;2023-03-14T05:21:03;10.30;99.90
23671;DHT22;12012;51.998;7.614;2023-03-14T05:23:29;10.30;99.90
23671;DHT22;12012;51.998;7.614;2023-03-14T05:25:55;10.30;99.90
23671;DHT22;12012;51.998;7.614;2023-03-14T05:28:20;10.30;99.90
23671;DHT22;12012;51.998;7.614;2023-03-14T05:30:46;10.20;99.90
23671;DHT22;12012;51.998;7.614;2023-03-14T05:33:12;10.30;99.90
23671;DHT22;12012;51.998;7.614;2023-03-14T05:35:37;10.20;99.90
23671;DHT22;12012;51.998;7.614;2023-03-14T05:38:03;10.20;99.90
23671;DHT22;12012;51.998;7.614;2023-03-14T05:40:29;10.20;99.90
23671;DHT22;12012;51.998;7.614;2023-03-14T05:42:54;10.10;99.90
23671;DHT22;12012;51.998;7.614;2023-03-14T05:45:20;10.10;99.90
23671;DHT22;12012;51.998;7.614;2023-03-14T05:47:45;10.10;99.90
23671;DHT22;12012;51.998;7.614;2023-03-14T05:50:11;10.10;99.90
23671;DHT22;12012;51.998;7.614;2023-03-14T05:52:36;10.00;99.90
23671;DHT22;12012;51.998;7.614;2023-03-14T05:55:02;10.00;99.90
23671;DHT22;12012;51.998;7.614;2023-03-14T05:57:28;10.00;99.90
23671;DHT22;12012;51.998;7.614;2023-03-14T05:59:54;9.90;99.90
23671;DHT22;12012;51.998;7.614;2023-03-14T06:02:19;9.90;99.90
23671;DHT22;12012;51.998;7.614;2023-03-14T06:04:45;9.90;99.90
23671;DHT22;12012;51.998;7.614;2023-03-14T06:07:10;9.90;99.90
23671;DHT22;12012;51.998;7.614;2023-03-14T06:09:36;9.80;99.90
23671;DHT22;12012;51.998;7.614;2023-03-14T06:12:01;9.80;99.90
23671;DHT22;12012;51.998;7.614;2023-03-14T06:14:27;9.80;1.00
23671;DHT22;12012;51.998;7.614;2023-03-14T06:16:53;9.70;1.00
23671;DHT22;12012;51.998;7.614;2023-03-14T06:19:19;9.70;1.00
23671;DHT22;12012;51.998;7.614;2023-03-14T06:21:45;9.70;1.00
23671;DHT22;12012;51.998;7.614;2023-03-14T06:24:10;9.60;1.00
23671;DHT22;12012;51.998;7.614;2023-03-14T06:26:36;9.60;1.00
23671;DHT22;12012;51.998;7.614;2023-03-14T06:29:02;9.50;1.00
23671;DHT22;12012;51.998;7.614;2023-03-14T06:31:30;9.40;1.00
23671;DHT22;12012;51.998;7.614;2023-03-14T06:33:56;9.40;1.00
23671;DHT22;12012;51.998;7.614;2023-03-14T06:36:22;9.40;1.00
23671;DHT22;12012;51.998;7.614;2023-03-14T06:38:47;9.40;1.00
23671;DHT22;12012;51.998;7.614;2023-03-14T06:41:13;9.40;1.00
23671;DHT22;12012;51.998;7.614;2023-03-14T06:43:38;9.40;1.00
23671;DHT22;12012;51.998;7.614;2023-03-14T06:46:04;9.40;13.80
23671;DHT22;12012;51.998;7.614;2023-03-14T06:48:30;9.30;17.60
23671;DHT22;12012;51.998;7.614;2023-03-14T06:50:55;9.20;22.10
23671;DHT22;12012;51.998;7.614;2023-03-14T06:53:21;9.20;44.00
23671;DHT22;12012;51.998;7.614;2023-03-14T06:55:47;9.20;53.80
23671;DHT22;12012;51.998;7.614;2023-03-14T06:58:12;9.10;65.70
23671;DHT22;12012;51.998;7.614;2023-03-14T07:00:38;9.20;73.60
23671;DHT22;12012;51.998;7.614;2023-03-14T07:03:04;9.20;73.70
23671;DHT22;12012;51.998;7.614;2023-03-14T07:05:29;9.20;78.10
23671;DHT22;12012;51.998;7.614;2023-03-14T07:07:55;9.20;82.40
23671;DHT22;12012;51.998;7.614;2023-03-14T07:10:21;9.20;84.10
23671;DHT22;12012;51.998;7.614;2023-03-14T07:12:47;9.20;86.50
23671;DHT22;12012;51.998;7.614;2023-03-14T07:15:13;9.10;90.40
23671;DHT22;12012;51.998;7.614;2023-03-14T07:17:38;9.20;92.20
23671;DHT22;12012;51.998;7.614;2023-03-14T07:20:04;9.20;93.10
23671;DHT22;12012;51.998;7.614;2023-03-14T07:22:30;9.20;94.90
23671;DHT22;12012;51.998;7.614;2023-03-14T07:24:56;9.20;97.10
23671;DHT22;12012;51.998;7.614;2023-03-14T07:27:22;9.10;99.60
23671;DHT22;12012;51.998;7.614;2023-03-14T07:29:47;9.20;99.90
23671;DHT22;12012;51.998;7.614;2023-03-14T07:32:13;9.10;99.90
23671;DHT22;12012;51.998;7.614;2023-03-14T07:34:41;9.20;99.90
23671;DHT22;12012;51.998;7.614;2023-03-14T07:37:07;9.20;99.90
23671;DHT22;12012;51.998;7.614;2023-03-14T07:39:33;9.30;99.90
23671;DHT22;12012;51.998;7.614;2023-03-14T07:41:58;9.30;99.90
23671;DHT22;12012;51.998;7.614;2023-03-14T07:44:24;9.30;99.90
23671;DHT22;12012;51.998;7.614;2023-03-14T07:46:50;9.40;99.90
23671;DHT22;12012;51.998;7.614;2023-03-14T07:49:15;9.40;99.90
23671;DHT22;12012;51.998;7.614;2023-03-14T07:51:41;9.40;99.90
23671;DHT22;12012;51.998;7.614;2023-03-14T07:54:06;9.50;99.90
23671;DHT22;12012;51.998;7.614;2023-03-14T07:56:33;9.50;99.90
23671;DHT22;12012;51.998;7.614;2023-03-14T07:58:58;9.70;99.90
23671;DHT22;12012;51.998;7.614;2023-03-14T08:01:24;9.70;99.90
23671;DHT22;12012;51.998;7.614;2023-03-14T08:03:49;9.70;99.90
23671;DHT22;12012;51.998;7.614;2023-03-14T08:06:15;9.80;99.90
23671;DHT22;12012;51.998;7.614;2023-03-14T08:08:41;9.80;99.90
23671;DHT22;12012;51.998;7.614;2023-03-14T08:11:07;9.90;99.90
23671;DHT22;12012;51.998;7.614;2023-03-14T08:13:37;10.00;99.90
23671;DHT22;12012;51.998;7.614;2023-03-14T08:16:03;10.10;97.20
23671;DHT22;12012;51.998;7.614;2023-03-14T08:18:29;10.20;95.30
23671;DHT22;12012;51.998;7.614;2023-03-14T08:20:55;10.30;90.60
23671;DHT22;12012;51.998;7.614;2023-03-14T08:23:20;10.30;85.10
23671;DHT22;12012;51.998;7.614;2023-03-14T08:25:49;10.40;80.20
23671;DHT22;12012;51.998;7.614;2023-03-14T08:28:15;10.40;77.90
23671;DHT22;12012;51.998;7.614;2023-03-14T08:30:41;10.40;79.30
23671;DHT22;12012;51.998;7.614;2023-03-14T08:33:06;10.40;77.80
23671;DHT22;12012;51.998;7.614;2023-03-14T08:35:32;10.30;81.00
23671;DHT22;12012;51.998;7.614;2023-03-14T08:37:58;10.30;79.50
23671;DHT22;12012;51.998;7.614;2023-03-14T08:40:23;10.40;83.70
23671;DHT22;12012;51.998;7.614;2023-03-14T08:42:49;10.40;81.50
23671;DHT22;12012;51.998;7.614;2023-03-14T08:45:15;10.40;81.10
23671;DHT22;12012;51.998;7.614;2023-03-14T08:47:44;10.50;80.50
23671;DHT22;12012;51.998;7.614;2023-03-14T08:50:11;10.50;76.80
23671;DHT22;12012;51.998;7.614;2023-03-14T08:52:36;10.50;72.60
23671;DHT22;12012;51.998;7.614;2023-03-14T08:55:09;10.60;69.20
23671;DHT22;12012;51.998;7.614;2023-03-14T08:57:34;10.60;69.00
23671;DHT22;12012;51.998;7.614;2023-03-14T09:00:02;10.70;65.50
23671;DHT22;12012;51.998;7.614;2023-03-14T09:02:30;10.70;61.60
23671;DHT22;12012;51.998;7.614;2023-03-14T09:04:56;10.70;56.50
23671;DHT22;12012;51.998;7.614;2023-03-14T09:07:21;10.70;55.00
23671;DHT22;12012;51.998;7.614;2023-03-14T09:09:47;10.70;55.60
23671;DHT22;12012;51.998;7.614;2023-03-14T09:12:13;10.70;61.10
23671;DHT22;12012;51.998;7.614;2023-03-14T09:14:38;10.80;68.50
23671;DHT22;12012;51.998;7.614;2023-03-14T09:17:04;10.90;67.00
23671;DHT22;12012;51.998;7.614;2023-03-14T09:19:30;10.90;54.70
23671;DHT22;12012;51.998;7.614;2023-03-14T09:21:56;11.00;52.00
23671;DHT22;12012;51.998;7.614;2023-03-14T09:24:21;11.00;42.90
23671;DHT22;12012;51.998;7.614;2023-03-14T09:26:47;11.00;41.30
23671;DHT22;12012;51.998;7.614;2023-03-14T09:29:12;10.90;36.90
23671;DHT22;12012;51.998;7.614;2023-03-14T09:31:38;10.90;35.90
23671;DHT22;12012;51.998;7.614;2023-03-14T09:34:04;10.90;35.30
23671;DHT22;12012;51.998;7.614;2023-03-14T09:36:30;10.80;32.10
23671;DHT22;12012;51.998;7.614;2023-03-14T09:38:55;10.70;36.60
23671;DHT22;12012;51.998;7.614;2023-03-14T09:41:25;10.40;11.30
23671;DHT22;12012;51.998;7.614;2023-03-14T09:46:29;9.70;1.00
23671;DHT22;12012;51.998;7.614;2023-03-14T09:48:56;9.40;8.40
23671;DHT22;12012;51.998;7.614;2023-03-14T09:51:21;9.20;24.40
23671;DHT22;12012;51.998;7.614;2023-03-14T09:53:49;9.00;33.30
23671;DHT22;12012;51.998;7.614;2023-03-14T09:56:26;8.80;27.90
23671;DHT22;12012;51.998;7.614;2023-03-14T09:58:56;8.70;33.00
23671;DHT22;12012;51.998;7.614;2023-03-14T10:01:26;8.60;45.90
23671;DHT22;12012;51.998;7.614;2023-03-14T10:03:56;8.50;49.60
23671;DHT22;12012;51.998;7.614;2023-03-14T10:06:26;8.40;60.80
23671;DHT22;12012;51.998;7.614;2023-03-14T10:08:52;8.30;69.30
23671;DHT22;12012;51.998;7.614;2023-03-14T10:11:19;8.30;70.20
23671;DHT22;12012;51.998;7.614;2023-03-14T10:14:07;8.20;76.90
23671;DHT22;12012;51.998;7.614;2023-03-14T10:16:40;8.20;90.10
23671;DHT22;12012;51.998;7.614;2023-03-14T10:19:12;8.20;91.60
23671;DHT22;12012;51.998;7.614;2023-03-14T10:24:22;8.10;54.40
23671;DHT22;12012;51.998;7.614;2023-03-14T10:27:17;7.90;30.00
23671;DHT22;12012;51.998;7.614;2023-03-14T10:30:00;7.80;34.60
23671;DHT22;12012;51.998;7.614;2023-03-14T10:32:34;7.60;1.00
23671;DHT22;12012;51.998;7.614;2023-03-14T10:35:20;7.40;1.00
23671;DHT22;12012;51.998;7.614;2023-03-14T10:38:00;7.20;1.00
23671;DHT22;12012;51.998;7.614;2023-03-14T10:40:32;7.10;1.00
23671;DHT22;12012;51.998;7.614;2023-03-14T10:42:59;7.00;1.00
23671;DHT22;12012;51.998;7.614;2023-03-14T10:45:44;6.90;1.00
23671;DHT22;12012;51.998;7.614;2023-03-14T10:51:09;7.00;1.00
23671;DHT22;12012;51.998;7.614;2023-03-14T10:54:13;7.00;1.00
23671;DHT22;12012;51.998;7.614;2023-03-14T10:56:44;6.90;1.00
23671;DHT22;12012;51.998;7.614;2023-03-14T10:59:16;6.80;1.00
23671;DHT22;12012;51.998;7.614;2023-03-14T11:05:07;6.70;99.90
23671;DHT22;12012;51.998;7.614;2023-03-14T11:07:40;6.70;99.90
23671;DHT22;12012;51.998;7.614;2023-03-14T11:10:33;6.60;99.90
23671;DHT22;12012;51.998;7.614;2023-03-14T11:13:12;6.60;99.90
23671;DHT22;12012;51.998;7.614;2023-03-14T11:24:41;6.70;99.90
23671;DHT22;12012;51.998;7.614;2023-03-14T11:27:34;6.70;1.00
23671;DHT22;12012;51.998;7.614;2023-03-14T11:30:27;6.80;35.70
23671;DHT22;12012;51.998;7.614;2023-03-14T11:33:08;6.90;57.10
23671;DHT22;12012;51.998;7.614;2023-03-14T11:40:38;6.70;99.90
23671;DHT22;12012;51.998;7.614;2023-03-14T11:45:41;7.00;33.00
23671;DHT22;12012;51.998;7.614;2023-03-14T11:50:53;7.10;1.00
23671;DHT22;12012;51.998;7.614;2023-03-14T11:56:16;7.40;99.90
23671;DHT22;12012;51.998;7.614;2023-03-14T11:58:54;7.50;99.90
23671;DHT22;12012;51.998;7.614;2023-03-14T12:01:27;7.70;1.00
23671;DHT22;12012;51.998;7.614;2023-03-14T12:03:56;7.80;99.90
23671;DHT22;12012;51.998;7.614;2023-03-14T12:06:31;7.90;99.90
23671;DHT22;12012;51.998;7.614;2023-03-14T12:09:02;8.10;99.90
23671;DHT22;12012;51.998;7.614;2023-03-14T12:11:54;8.40;99.90
23671;DHT22;12012;51.998;7.614;2023-03-14T12:14:32;8.70;1.00
23671;DHT22;12012;51.998;7.614;2023-03-14T12:17:05;8.80;4.40
23671;DHT22;12012;51.998;7.614;2023-03-14T12:19:33;8.70;99.90
23671;DHT22;12012;51.998;7.614;2023-03-14T12:22:19;8.70;82.00
23671;DHT22;12012;51.998;7.614;2023-03-14T12:24:59;8.50;46.60
23671;DHT22;12012;51.998;7.614;2023-03-14T12:27:44;8.30;1.00
23671;DHT22;12012;51.998;7.614;2023-03-14T12:32:41;8.10;72.20
23671;DHT22;12012;51.998;7.614;2023-03-14T12:35:34;8.10;1.00
23671;DHT22;12012;51.998;7.614;2023-03-14T12:38:16;8.00;1.00
23671;DHT22;12012;51.998;7.614;2023-03-14T12:41:00;8.00;99.90
23671;DHT22;12012;51.998;7.614;2023-03-14T12:43:33;8.30;1.00
23671;DHT22;12012;51.998;7.614;2023-03-14T12:46:34;8.60;1.00
23671;DHT22;12012;51.998;7.614;2023-03-14T13:00:00;8.80;99.90
23671;DHT22;12012;51.998;7.614;2023-03-14T13:02:38;8.60;99.90
23671;DHT22;12012;51.998;7.614;2023-03-14T13:05:19;8.60;1.00
23671;DHT22;12012;51.998;7.614;2023-03-14T13:10:22;8.70;99.90
23671;DHT22;12012;51.998;7.614;2023-03-14T13:13:03;8.80;99.90
23671;DHT22;12012;51.998;7.614;2023-03-14T13:18:03;8.90;1.00
23671;DHT22;12012;51.998;7.614;2023-03-14T13:20:40;9.00;1.00
23671;DHT22;12012;51.998;7.614;2023-03-14T13:23:19;9.00;99.90
23671;DHT22;12012;51.998;7.614;2023-03-14T13:25:45;9.10;99.90
23671;DHT22;12012;51.998;7.614;2023-03-14T13:28:11;9.30;99.90
23671;DHT22;12012;51.998;7.614;2023-03-14T13:30:41;9.30;99.90
23671;DHT22;12012;51.998;7.614;2023-03-14T13:33:14;9.30;99.90
23671;DHT22;12012;51.998;7.614;2023-03-14T13:35:45;9.20;99.90
23671;DHT22;12012;51.998;7.614;2023-03-14T13:38:20;9.00;99.90
23671;DHT22;12012;51.998;7.614;2023-03-14T13:40:48;8.90;99.90
23671;DHT22;12012;51.998;7.614;2023-03-14T13:43:17;8.90;99.90
23671;DHT22;12012;51.998;7.614;2023-03-14T13:45:52;9.00;99.90
23671;DHT22;12012;51.998;7.614;2023-03-14T13:48:19;9.30;99.90
23671;DHT22;12012;51.998;7.614;2023-03-14T13:50:53;9.80;99.90
23671;DHT22;12012;51.998;7.614;2023-03-14T13:53:20;10.00;99.90
23671;DHT22;12012;51.998;7.614;2023-03-14T13:55:46;10.00;99.90
23671;DHT22;12012;51.998;7.614;2023-03-14T13:58:20;9.90;99.90
23671;DHT22;12012;51.998;7.614;2023-03-14T14:01:15;9.70;99.60
23671;DHT22;12012;51.998;7.614;2023-03-14T14:03:42;9.70;96.90
23671;DHT22;12012;51.998;7.614;2023-03-14T14:06:36;11.50;93.70
23671;DHT22;12012;51.998;7.614;2023-03-14T14:09:29;13.00;63.60
23671;DHT22;12012;51.998;7.614;2023-03-14T14:11:56;15.00;41.60
23671;DHT22;12012;51.998;7.614;2023-03-14T14:14:34;16.20;21.50
23671;DHT22;12012;51.998;7.614;2023-03-14T14:17:04;17.40;10.60
23671;DHT22;12012;51.998;7.614;2023-03-14T14:19:32;18.50;2.40
23671;DHT22;12012;51.998;7.614;2023-03-14T14:21:59;19.20;1.00
23671;DHT22;12012;51.998;7.614;2023-03-14T14:24:29;19.40;1.00
23671;DHT22;12012;51.998;7.614;2023-03-14T14:27:15;19.60;1.00
23671;DHT22;12012;51.998;7.614;2023-03-14T14:29:42;19.40;1.00
23671;DHT22;12012;51.998;7.614;2023-03-14T14:34:47;16.50;1.00
23671;DHT22;12012;51.998;7.614;2023-03-14T14:37:26;15.10;1.00
23671;DHT22;12012;51.998;7.614;2023-03-14T14:39:53;13.90;1.00
23671;DHT22;12012;51.998;7.614;2023-03-14T14:42:21;13.10;1.00
23671;DHT22;12012;51.998;7.614;2023-03-14T14:44:50;12.80;1.00
23671;DHT22;12012;51.998;7.614;2023-03-14T14:47:19;12.70;1.00
23671;DHT22;12012;51.998;7.614;2023-03-14T14:49:47;12.20;1.00
23671;DHT22;12012;51.998;7.614;2023-03-14T14:52:16;11.70;1.00
23671;DHT22;12012;51.998;7.614;2023-03-14T14:54:51;11.50;1.00
23671;DHT22;12012;51.998;7.614;2023-03-14T14:57:41;11.60;1.00
23671;DHT22;12012;51.998;7.614;2023-03-14T15:00:22;11.40;1.00
23671;DHT22;12012;51.998;7.614;2023-03-14T15:02:58;11.40;1.00
23671;DHT22;12012;51.998;7.614;2023-03-14T15:05:26;11.40;1.00
23671;DHT22;12012;51.998;7.614;2023-03-14T15:07:52;11.60;1.00
23671;DHT22;12012;51.998;7.614;2023-03-14T15:10:20;12.10;1.00
23671;DHT22;12012;51.998;7.614;2023-03-14T15:12:46;12.10;1.00
23671;DHT22;12012;51.998;7.614;2023-03-14T15:15:16;11.70;1.00
23671;DHT22;12012;51.998;7.614;2023-03-14T15:17:42;11.30;1.00
23671;DHT22;12012;51.998;7.614;2023-03-14T15:20:13;11.00;1.00
23671;DHT22;12012;51.998;7.614;2023-03-14T15:22:40;11.00;1.00
23671;DHT22;12012;51.998;7.614;2023-03-14T15:25:06;10.80;1.00
23671;DHT22;12012;51.998;7.614;2023-03-14T15:27:33;10.50;1.00
23671;DHT22;12012;51.998;7.614;2023-03-14T15:29:59;10.20;1.00
23671;DHT22;12012;51.998;7.614;2023-03-14T15:32:25;10.00;1.00
23671;DHT22;12012;51.998;7.614;2023-03-14T15:34:56;9.90;1.00
23671;DHT22;12012;51.998;7.614;2023-03-14T15:37:21;9.70;1.00
23671;DHT22;12012;51.998;7.614;2023-03-14T15:39:47;9.60;1.00
23671;DHT22;12012;51.998;7.614;2023-03-14T15:42:13;9.40;1.00
23671;DHT22;12012;51.998;7.614;2023-03-14T15:44:39;9.20;1.00
23671;DHT22;12012;51.998;7.614;2023-03-14T15:47:05;9.10;1.00
23671;DHT22;12012;51.998;7.614;2023-03-14T15:49:31;8.90;1.00
23671;DHT22;12012;51.998;7.614;2023-03-14T15:51:57;8.80;1.00
23671;DHT22;12012;51.998;7.614;2023-03-14T15:54:23;8.70;1.00
23671;DHT22;12012;51.998;7.614;2023-03-14T15:56:49;8.70;1.00
23671;DHT22;12012;51.998;7.614;2023-03-14T15:59:14;8.70;1.00
23671;DHT22;12012;51.998;7.614;2023-03-14T16:01:40;8.60;1.00
23671;DHT22;12012;51.998;7.614;2023-03-14T16:04:05;8.50;1.00
23671;DHT22;12012;51.998;7.614;2023-03-14T16:06:31;8.60;1.00
23671;DHT22;12012;51.998;7.614;2023-03-14T16:08:57;8.70;1.00
23671;DHT22;12012;51.998;7.614;2023-03-14T16:11:23;8.80;1.00
23671;DHT22;12012;51.998;7.614;2023-03-14T16:13:49;8.80;1.00
23671;DHT22;12012;51.998;7.614;2023-03-14T16:16:14;8.90;1.00
23671;DHT22;12012;51.998;7.614;2023-03-14T16:18:40;8.90;1.00
23671;DHT22;12012;51.998;7.614;2023-03-14T16:21:10;8.90;1.00
23671;DHT22;12012;51.998;7.614;2023-03-14T16:23:36;8.90;1.00
23671;DHT22;12012;51.998;7.614;2023-03-14T16:26:06;8.90;1.00
23671;DHT22;12012;51.998;7.614;2023-03-14T16:28:32;8.80;1.00
23671;DHT22;12012;51.998;7.614;2023-03-14T16:31:10;8.80;1.00
23671;DHT22;12012;51.998;7.614;2023-03-14T16:33:37;8.60;1.00
23671;DHT22;12012;51.998;7.614;2023-03-14T16:36:05;8.50;1.00
23671;DHT22;12012;51.998;7.614;2023-03-14T16:38:33;8.30;1.00
23671;DHT22;12012;51.998;7.614;2023-03-14T16:43:29;7.90;1.00
23671;DHT22;12012;51.998;7.614;2023-03-14T16:45:58;7.70;1.00
23671;DHT22;12012;51.998;7.614;2023-03-14T16:48:24;7.60;1.00
23671;DHT22;12012;51.998;7.614;2023-03-14T16:50:50;7.50;1.00
23671;DHT22;12012;51.998;7.614;2023-03-14T16:53:16;7.40;1.00
23671;DHT22;12012;51.998;7.614;2023-03-14T16:55:42;7.20;1.00
23671;DHT22;12012;51.998;7.614;2023-03-14T16:58:08;7.10;1.00
23671;DHT22;12012;51.998;7.614;2023-03-14T17:00:34;7.10;1.00
23671;DHT22;12012;51.998;7.614;2023-03-14T17:03:00;7.00;1.00
23671;DHT22;12012;51.998;7.614;2023-03-14T17:05:26;6.90;1.00